createdAt,value
2019-03-09T00:02:18.414Z,2.40
2019-03-09T00:04:47.637Z,2.77
2019-03-09T00:07:17.134Z,4.33
2019-03-09T00:09:46.780Z,3.47
2019-03-09T00:12:15.819Z,3.20
2019-03-09T00:14:44.949Z,2.70
2019-03-09T00:17:14.078Z,3.73
2019-03-09T00:19:43.162Z,2.70
2019-03-09T00:22:12.849Z,3.33
2019-03-09T00:25:07.185Z,3.13
2019-03-09T00:27:59.016Z,3.20
2019-03-09T00:30:32.086Z,2.87
2019-03-09T00:33:01.223Z,3.00
2019-03-09T00:35:30.332Z,3.50
2019-03-09T00:37:59.397Z,3.10
2019-03-09T00:40:28.627Z,2.90
2019-03-09T00:42:57.650Z,3.03
2019-03-09T00:45:26.742Z,3.00
2019-03-09T00:47:55.818Z,3.60
2019-03-09T00:50:25.242Z,3.77
2019-03-09T00:52:54.238Z,2.40
2019-03-09T00:55:23.344Z,3.40
2019-03-09T00:57:52.403Z,2.80
2019-03-09T01:00:21.548Z,3.30
2019-03-09T01:02:51.246Z,3.17
2019-03-09T01:05:20.532Z,4.20
2019-03-09T01:07:49.630Z,2.87
2019-03-09T01:10:18.707Z,2.83
2019-03-09T01:12:48.236Z,3.40
2019-03-09T01:15:17.332Z,3.07
2019-03-09T01:17:46.482Z,3.27
2019-03-09T01:20:16.423Z,3.40
2019-03-09T01:22:45.608Z,2.60
2019-03-09T01:25:15.078Z,7.13
2019-03-09T01:27:44.198Z,5.27
2019-03-09T01:30:16.060Z,4.90
2019-03-09T01:32:45.257Z,7.83
2019-03-09T01:35:14.393Z,6.27
2019-03-09T01:37:43.541Z,17.17
2019-03-09T01:40:12.853Z,8.77
2019-03-09T01:42:42.057Z,10.20
2019-03-09T01:45:11.984Z,4.40
2019-03-09T01:47:41.179Z,3.67
2019-03-09T01:50:10.905Z,4.20
2019-03-09T01:52:40.317Z,10.47
2019-03-09T01:55:09.528Z,13.33
2019-03-09T01:57:58.437Z,7.97
2019-03-09T02:00:27.944Z,16.30
2019-03-09T02:02:57.065Z,3.57
2019-03-09T02:05:26.113Z,5.90
2019-03-09T02:07:55.553Z,6.53
2019-03-09T02:10:25.091Z,5.60
2019-03-09T02:12:54.356Z,4.10
2019-03-09T02:15:23.349Z,6.67
2019-03-09T02:17:52.226Z,6.23
2019-03-09T02:20:21.102Z,18.30
2019-03-09T02:22:50.239Z,6.47
2019-03-09T02:25:19.103Z,5.10
2019-03-09T02:27:48.122Z,5.93
2019-03-09T02:30:16.976Z,4.70
2019-03-09T02:32:45.886Z,4.37
2019-03-09T02:35:14.800Z,4.20
2019-03-09T02:37:43.650Z,5.10
2019-03-09T02:40:15.582Z,4.33
2019-03-09T02:42:44.522Z,4.00
2019-03-09T02:45:14.825Z,4.30
2019-03-09T02:47:43.602Z,4.23
2019-03-09T02:50:13.321Z,4.53
2019-03-09T02:52:42.109Z,4.07
2019-03-09T02:55:11.838Z,4.50
2019-03-09T02:57:40.731Z,8.37
2019-03-09T03:00:12.961Z,6.17
2019-03-09T03:02:50.989Z,10.03
2019-03-09T03:05:19.792Z,7.87
2019-03-09T03:07:48.549Z,13.93
2019-03-09T03:10:17.468Z,8.70
2019-03-09T03:12:46.225Z,5.43
2019-03-09T03:15:30.087Z,4.63
2019-03-09T03:17:58.927Z,3.87
2019-03-09T03:20:28.133Z,4.57
2019-03-09T03:22:56.978Z,5.37
2019-03-09T03:25:26.153Z,4.20
2019-03-09T03:27:55.055Z,4.23
2019-03-09T03:30:24.314Z,3.93
2019-03-09T03:32:54.394Z,3.43
2019-03-09T03:35:23.298Z,3.80
2019-03-09T03:37:52.142Z,3.40
2019-03-09T03:40:20.994Z,4.17
2019-03-09T03:42:49.755Z,3.73
2019-03-09T03:45:18.540Z,3.50
2019-03-09T03:47:47.294Z,3.10
2019-03-09T03:50:16.243Z,2.80
2019-03-09T03:52:44.986Z,3.40
2019-03-09T03:55:13.860Z,3.07
2019-03-09T03:57:42.938Z,2.57
2019-03-09T04:00:12.447Z,2.63
2019-03-09T04:02:41.856Z,2.13
2019-03-09T04:05:10.787Z,2.47
2019-03-09T04:07:40.994Z,2.13
2019-03-09T04:10:09.941Z,1.87
2019-03-09T04:12:39.102Z,2.13
2019-03-09T04:15:08.138Z,2.50
2019-03-09T04:17:37.050Z,2.47
2019-03-09T04:20:06.477Z,2.00
2019-03-09T04:22:35.309Z,2.33
2019-03-09T04:25:04.303Z,2.07
2019-03-09T04:27:33.066Z,2.37
2019-03-09T04:30:01.931Z,1.90
2019-03-09T04:32:30.949Z,2.30
2019-03-09T04:34:59.882Z,2.07
2019-03-09T04:37:28.883Z,1.77
2019-03-09T04:39:57.666Z,1.60
2019-03-09T04:42:26.427Z,1.80
2019-03-09T04:44:55.450Z,1.70
2019-03-09T04:47:24.218Z,1.50
2019-03-09T04:49:53.234Z,1.70
2019-03-09T04:52:21.992Z,1.60
2019-03-09T04:54:50.765Z,1.43
2019-03-09T04:57:19.524Z,1.47
2019-03-09T04:59:48.293Z,1.70
2019-03-09T05:02:17.082Z,1.37
2019-03-09T05:04:50.907Z,1.20
2019-03-09T05:07:26.167Z,1.27
2019-03-09T05:10:05.680Z,1.20
2019-03-09T05:12:34.445Z,1.20
2019-03-09T05:15:03.302Z,1.10
2019-03-09T05:17:32.081Z,1.30
2019-03-09T05:20:00.871Z,1.30
2019-03-09T05:22:29.644Z,1.13
2019-03-09T05:24:58.409Z,1.17
2019-03-09T05:27:27.194Z,1.10
2019-03-09T05:29:55.969Z,0.93
2019-03-09T05:32:24.754Z,1.00
2019-03-09T05:34:53.525Z,1.20
2019-03-09T05:37:22.307Z,1.13
2019-03-09T05:39:51.068Z,1.10
2019-03-09T05:42:19.857Z,1.03
2019-03-09T05:44:48.619Z,0.93
2019-03-09T05:47:17.401Z,1.00
2019-03-09T05:49:46.468Z,1.27
2019-03-09T05:52:43.842Z,1.20
2019-03-09T05:55:17.808Z,1.10
2019-03-09T05:57:46.605Z,1.20
2019-03-09T06:00:16.719Z,1.10
2019-03-09T06:02:45.834Z,1.30
2019-03-09T06:05:40.865Z,1.40
2019-03-09T06:08:09.935Z,1.60
2019-03-09T06:10:38.853Z,1.73
2019-03-09T06:13:07.945Z,1.43
2019-03-09T06:15:36.743Z,2.10
2019-03-09T06:18:06.486Z,1.73
2019-03-09T06:20:35.350Z,2.00
2019-03-09T06:23:04.210Z,2.30
2019-03-09T06:25:33.286Z,2.00
2019-03-09T06:28:02.095Z,2.47
2019-03-09T06:30:30.867Z,2.73
2019-03-09T06:33:20.705Z,3.03
2019-03-09T06:35:58.774Z,3.13
2019-03-09T06:38:49.475Z,3.93
2019-03-09T06:41:25.274Z,3.70
2019-03-09T06:43:54.126Z,3.60
2019-03-09T06:46:22.897Z,3.10
2019-03-09T06:48:52.037Z,3.27
2019-03-09T06:51:20.794Z,3.57
2019-03-09T06:53:49.565Z,3.30
2019-03-09T06:56:18.338Z,3.77
2019-03-09T06:58:47.124Z,3.73
2019-03-09T07:01:20.430Z,3.43
2019-03-09T07:03:49.217Z,3.00
2019-03-09T07:06:18.245Z,3.27
2019-03-09T07:08:47.115Z,3.37
2019-03-09T07:11:15.880Z,3.43
2019-03-09T07:13:52.477Z,3.60
2019-03-09T07:16:15.254Z,3.57
2019-03-09T07:18:44.358Z,3.00
2019-03-09T07:21:13.145Z,3.50
2019-03-09T07:23:41.987Z,3.40
2019-03-09T07:26:11.603Z,3.57
2019-03-09T07:28:40.649Z,3.60
2019-03-09T07:31:12.869Z,3.87
2019-03-09T07:33:41.642Z,4.43
2019-03-09T07:36:10.417Z,5.10
2019-03-09T07:38:39.193Z,4.63
2019-03-09T07:41:07.974Z,4.70
2019-03-09T07:43:36.825Z,4.83
2019-03-09T07:46:05.618Z,5.00
2019-03-09T07:48:34.372Z,4.60
2019-03-09T07:51:03.170Z,4.63
2019-03-09T07:53:31.934Z,4.73
2019-03-09T07:56:00.745Z,5.03
2019-03-09T07:58:29.510Z,5.20
2019-03-09T08:00:58.293Z,5.63
2019-03-09T08:03:27.059Z,5.30
2019-03-09T08:05:56.081Z,6.03
2019-03-09T08:08:24.862Z,5.70
2019-03-09T08:10:53.647Z,6.07
2019-03-09T08:13:22.437Z,6.03
2019-03-09T08:15:51.325Z,5.97
2019-03-09T08:18:20.189Z,5.53
2019-03-09T08:20:49.076Z,5.80
2019-03-09T08:23:17.880Z,5.80
2019-03-09T08:25:46.869Z,6.47
2019-03-09T08:28:16.634Z,5.87
2019-03-09T08:30:45.515Z,6.07
2019-03-09T08:33:14.415Z,5.90
2019-03-09T08:35:43.370Z,5.87
2019-03-09T08:38:12.229Z,6.33
2019-03-09T08:40:42.675Z,4.77
2019-03-09T08:43:12.015Z,5.73
2019-03-09T08:45:40.843Z,5.20
2019-03-09T08:48:09.667Z,4.47
2019-03-09T08:50:38.438Z,4.90
2019-03-09T08:53:07.500Z,4.23
2019-03-09T08:55:36.416Z,4.77
2019-03-09T08:58:05.305Z,3.97
2019-03-09T09:00:34.388Z,3.80
2019-03-09T09:03:03.224Z,3.63
2019-03-09T09:05:32.144Z,3.27
2019-03-09T09:08:03.487Z,3.50
2019-03-09T09:10:31.615Z,3.23
2019-03-09T09:13:00.665Z,3.07
2019-03-09T09:15:29.528Z,2.90
2019-03-09T09:17:58.393Z,2.67
2019-03-09T09:20:27.270Z,3.63
2019-03-09T09:22:58.958Z,2.07
2019-03-09T09:25:27.907Z,2.40
2019-03-09T09:27:56.746Z,2.30
2019-03-09T09:30:26.479Z,2.40
2019-03-09T09:32:55.489Z,3.00
2019-03-09T09:35:24.410Z,2.33
2019-03-09T09:37:53.550Z,2.37
2019-03-09T09:40:23.033Z,2.00
2019-03-09T09:42:52.024Z,2.10
2019-03-09T09:45:21.045Z,1.60
2019-03-09T09:47:50.151Z,1.90
2019-03-09T09:50:19.065Z,2.50
2019-03-09T09:52:47.855Z,2.23
2019-03-09T09:55:16.722Z,1.87
2019-03-09T09:57:45.847Z,1.67
2019-03-09T10:00:27.652Z,1.67
2019-03-09T10:02:56.602Z,1.80
2019-03-09T10:05:25.739Z,1.53
2019-03-09T10:07:54.608Z,1.87
2019-03-09T10:10:23.426Z,1.47
2019-03-09T10:12:52.446Z,1.43
2019-03-09T10:15:25.220Z,1.40
2019-03-09T10:17:54.126Z,1.63
2019-03-09T10:20:24.126Z,1.20
2019-03-09T10:23:03.143Z,1.50
2019-03-09T10:25:23.681Z,1.10
2019-03-09T10:27:52.795Z,1.63
2019-03-09T10:30:22.289Z,1.40
2019-03-09T10:32:51.266Z,1.27
2019-03-09T10:35:20.185Z,1.30
2019-03-09T10:37:49.265Z,1.67
2019-03-09T10:40:18.638Z,1.40
2019-03-09T10:42:47.487Z,1.60
2019-03-09T10:45:16.460Z,1.50
2019-03-09T10:47:45.290Z,1.10
2019-03-09T10:50:14.469Z,1.33
2019-03-09T10:52:43.483Z,1.40
2019-03-09T10:55:14.633Z,1.43
2019-03-09T10:57:44.352Z,1.20
2019-03-09T11:00:18.772Z,1.40
2019-03-09T11:02:47.589Z,1.10
2019-03-09T11:05:16.538Z,1.20
2019-03-09T11:07:45.464Z,1.73
2019-03-09T11:10:14.479Z,1.60
2019-03-09T11:12:43.969Z,1.87
2019-03-09T11:15:13.140Z,1.57
2019-03-09T11:17:41.923Z,1.10
2019-03-09T11:20:11.612Z,1.07
2019-03-09T11:22:40.525Z,1.40
2019-03-09T11:25:09.600Z,1.63
2019-03-09T11:27:38.441Z,1.13
2019-03-09T11:30:13.745Z,1.43
2019-03-09T11:32:42.664Z,1.50
2019-03-09T11:35:11.533Z,1.30
2019-03-09T11:37:40.290Z,1.67
2019-03-09T11:40:09.123Z,1.20
2019-03-09T11:42:37.960Z,1.40
2019-03-09T11:45:07.999Z,1.10
2019-03-09T11:47:36.857Z,1.10
2019-03-09T11:50:06.489Z,0.93
2019-03-09T11:52:35.420Z,1.20
2019-03-09T11:55:04.492Z,1.00
2019-03-09T11:57:33.356Z,1.00
2019-03-09T12:00:02.242Z,0.90
2019-03-09T12:02:38.567Z,1.30
2019-03-09T12:05:01.655Z,1.20
2019-03-09T12:07:30.457Z,1.20
2019-03-09T12:09:59.355Z,1.50
2019-03-09T12:12:28.149Z,1.37
2019-03-09T12:14:56.922Z,1.50
2019-03-09T12:17:25.721Z,1.60
2019-03-09T12:19:54.510Z,1.20
2019-03-09T12:22:23.298Z,1.07
2019-03-09T12:24:53.279Z,1.23
2019-03-09T12:27:22.071Z,1.27
2019-03-09T12:29:50.837Z,0.90
2019-03-09T12:32:19.984Z,1.10
2019-03-09T12:34:48.837Z,1.10
2019-03-09T12:37:17.611Z,1.20
2019-03-09T12:39:46.373Z,1.30
2019-03-09T12:42:15.197Z,1.10
2019-03-09T12:44:44.044Z,1.10
2019-03-09T12:47:12.913Z,1.10
2019-03-09T12:49:41.681Z,1.00
2019-03-09T12:52:10.539Z,0.83
2019-03-09T12:54:39.333Z,1.20
2019-03-09T12:57:08.105Z,1.13
2019-03-09T12:59:37.112Z,0.90
2019-03-09T13:02:06.068Z,0.80
2019-03-09T13:04:34.953Z,1.10
2019-03-09T13:07:03.725Z,0.97
2019-03-09T13:09:32.587Z,1.97
2019-03-09T13:12:01.391Z,1.20
2019-03-09T13:14:30.237Z,5.27
2019-03-09T13:16:59.025Z,9.33
2019-03-09T13:19:27.809Z,14.10
2019-03-09T13:21:56.610Z,2.60
2019-03-09T13:24:25.629Z,1.87
2019-03-09T13:26:54.450Z,5.17
2019-03-09T13:29:23.302Z,1.60
2019-03-09T13:31:52.392Z,10.00
2019-03-09T13:34:21.442Z,6.57
2019-03-09T13:36:50.257Z,2.03
2019-03-09T13:39:19.030Z,2.50
2019-03-09T13:41:48.294Z,2.40
2019-03-09T13:44:17.122Z,0.90
2019-03-09T13:46:45.911Z,1.10
2019-03-09T13:49:14.695Z,0.80
2019-03-09T13:51:43.473Z,0.83
2019-03-09T13:54:12.409Z,1.10
2019-03-09T13:56:41.196Z,1.23
2019-03-09T13:59:09.985Z,0.70
2019-03-09T14:01:38.771Z,0.93
2019-03-09T14:04:07.576Z,0.80
2019-03-09T14:06:36.419Z,2.10
2019-03-09T14:09:06.063Z,1.73
2019-03-09T14:11:34.878Z,2.80
2019-03-09T14:14:04.143Z,2.03
2019-03-09T14:16:33.276Z,7.33
2019-03-09T14:19:02.655Z,5.37
2019-03-09T14:21:31.853Z,2.00
2019-03-09T14:24:01.124Z,3.83
2019-03-09T14:26:30.614Z,1.83
2019-03-09T14:28:59.866Z,3.87
2019-03-09T14:31:29.802Z,1.27
2019-03-09T14:33:58.972Z,2.27
2019-03-09T14:36:28.083Z,1.53
2019-03-09T14:38:57.467Z,2.77
2019-03-09T14:41:26.604Z,3.60
2019-03-09T14:43:55.810Z,3.07
2019-03-09T14:46:25.245Z,2.10
2019-03-09T14:48:54.460Z,4.30
2019-03-09T14:51:23.790Z,2.10
2019-03-09T14:53:52.962Z,2.10
2019-03-09T14:56:22.052Z,1.40
2019-03-09T14:58:51.165Z,1.60
2019-03-09T15:01:20.591Z,2.07
2019-03-09T15:03:49.691Z,2.30
2019-03-09T15:06:19.064Z,1.50
2019-03-09T15:08:48.151Z,2.37
2019-03-09T15:11:17.276Z,8.97
2019-03-09T15:13:46.419Z,4.70
2019-03-09T15:16:15.712Z,6.87
2019-03-09T15:18:45.015Z,2.87
2019-03-09T15:21:14.227Z,4.43
2019-03-09T15:23:43.447Z,3.63
2019-03-09T15:26:12.667Z,3.60
2019-03-09T15:28:42.060Z,3.63
2019-03-09T15:31:11.272Z,3.77
2019-03-09T15:33:40.371Z,5.63
2019-03-09T15:36:09.631Z,4.50
2019-03-09T15:38:39.244Z,6.33
2019-03-09T15:41:08.532Z,4.33
2019-03-09T15:43:38.379Z,4.53
2019-03-09T15:46:07.665Z,5.37
2019-03-09T15:48:36.753Z,4.73
2019-03-09T15:51:06.189Z,6.13
2019-03-09T15:53:35.713Z,4.57
2019-03-09T15:56:05.498Z,4.53
2019-03-09T15:58:34.581Z,6.23
2019-03-09T16:01:04.278Z,5.83
2019-03-09T16:03:33.460Z,4.90
2019-03-09T16:06:02.606Z,5.40
2019-03-09T16:08:31.786Z,3.90
2019-03-09T16:11:01.050Z,5.60
2019-03-09T16:13:30.353Z,4.80
2019-03-09T16:15:59.592Z,5.30
2019-03-09T16:18:28.652Z,5.10
2019-03-09T16:20:57.786Z,5.33
2019-03-09T16:23:27.057Z,5.00
2019-03-09T16:25:56.229Z,5.17
2019-03-09T16:28:25.356Z,4.63
2019-03-09T16:30:54.597Z,5.00
2019-03-09T16:33:23.777Z,4.30
2019-03-09T16:35:53.396Z,4.40
2019-03-09T16:38:22.641Z,4.30
2019-03-09T16:40:51.859Z,3.83
2019-03-09T16:43:21.052Z,4.63
2019-03-09T16:45:50.149Z,4.30
2019-03-09T16:48:19.237Z,3.73
2019-03-09T16:50:48.881Z,4.10
2019-03-09T16:53:17.991Z,3.50
2019-03-09T16:55:47.161Z,4.40
2019-03-09T16:58:16.761Z,4.07
2019-03-09T17:00:46.032Z,2.90
2019-03-09T17:03:15.169Z,3.63
2019-03-09T17:05:44.318Z,3.30
2019-03-09T17:08:13.412Z,4.50
2019-03-09T17:10:42.527Z,3.20
2019-03-09T17:13:11.775Z,3.33
2019-03-09T17:15:40.915Z,4.33
2019-03-09T17:18:10.048Z,3.93
2019-03-09T17:20:39.256Z,3.17
2019-03-09T17:23:10.226Z,4.90
2019-03-09T17:25:39.664Z,3.23
2019-03-09T17:28:08.871Z,4.10
2019-03-09T17:30:38.079Z,4.23
2019-03-09T17:33:07.339Z,4.10
2019-03-09T17:35:36.925Z,3.70
2019-03-09T17:38:06.036Z,3.40
2019-03-09T17:40:35.189Z,3.30
2019-03-09T17:43:04.448Z,3.63
2019-03-09T17:45:33.850Z,3.83
2019-03-09T17:48:03.023Z,4.33
2019-03-09T17:50:32.203Z,15.03
2019-03-09T17:53:01.383Z,5.47
2019-03-09T17:55:30.556Z,3.57
2019-03-09T17:57:59.862Z,5.90
2019-03-09T18:00:30.314Z,5.60
2019-03-09T18:02:59.513Z,4.30
2019-03-09T18:05:29.014Z,4.07
2019-03-09T18:07:58.079Z,4.23
2019-03-09T18:10:39.480Z,6.20
2019-03-09T18:13:09.236Z,4.50
2019-03-09T18:15:38.656Z,6.30
2019-03-09T18:18:07.879Z,4.53
2019-03-09T18:20:37.170Z,5.30
2019-03-09T18:23:06.369Z,2.70
2019-03-09T18:25:35.488Z,3.53
2019-03-09T18:28:04.700Z,5.00
2019-03-09T18:30:33.950Z,3.83
2019-03-09T18:33:03.121Z,4.80
2019-03-09T18:35:32.331Z,6.10
2019-03-09T18:38:01.548Z,8.83
2019-03-09T18:40:30.711Z,3.53
2019-03-09T18:42:59.855Z,3.77
2019-03-09T18:45:29.406Z,5.70
2019-03-09T18:47:58.559Z,4.17
2019-03-09T18:50:27.720Z,4.97
2019-03-09T18:52:56.935Z,6.13
2019-03-09T18:55:26.098Z,6.13
2019-03-09T18:57:55.341Z,8.43
2019-03-09T19:00:24.546Z,5.10
2019-03-09T19:02:54.128Z,3.77
2019-03-09T19:05:23.252Z,4.53
2019-03-09T19:07:52.387Z,8.13
2019-03-09T19:10:21.560Z,6.13
2019-03-09T19:12:51.095Z,7.27
2019-03-09T19:15:20.611Z,8.53
2019-03-09T19:17:49.766Z,5.87
2019-03-09T19:20:19.250Z,5.23
2019-03-09T19:22:48.716Z,9.03
2019-03-09T19:25:18.231Z,5.93
2019-03-09T19:27:47.382Z,5.00
2019-03-09T19:30:16.749Z,9.00
2019-03-09T19:32:45.963Z,3.53
2019-03-09T19:35:15.223Z,3.37
2019-03-09T19:37:44.365Z,3.70
2019-03-09T19:40:14.221Z,3.57
2019-03-09T19:42:43.409Z,4.03
2019-03-09T19:45:13.214Z,4.00
2019-03-09T19:47:42.388Z,3.33
2019-03-09T19:50:13.544Z,4.73
2019-03-09T19:52:42.693Z,3.37
2019-03-09T19:55:11.891Z,3.03
2019-03-09T19:57:41.071Z,3.13
2019-03-09T20:00:11.063Z,5.57
2019-03-09T20:02:40.267Z,6.70
2019-03-09T20:05:09.520Z,5.47
2019-03-09T20:07:38.674Z,5.07
2019-03-09T20:10:09.071Z,5.93
2019-03-09T20:12:38.211Z,4.30
2019-03-09T20:15:08.182Z,6.03
2019-03-09T20:17:37.233Z,4.13
2019-03-09T20:20:06.402Z,3.57
2019-03-09T20:22:35.173Z,3.17
2019-03-09T20:25:04.117Z,3.80
2019-03-09T20:27:33.133Z,3.90
2019-03-09T20:30:01.942Z,4.00
2019-03-09T20:32:30.729Z,3.27
2019-03-09T20:34:59.538Z,3.90
2019-03-09T20:37:28.306Z,3.93
2019-03-09T20:39:57.349Z,3.80
2019-03-09T20:42:26.159Z,3.53
2019-03-09T20:44:54.997Z,2.90
2019-03-09T20:47:23.801Z,3.43
2019-03-09T20:49:52.581Z,2.93
2019-03-09T20:52:21.395Z,4.10
2019-03-09T20:54:50.166Z,5.53
2019-03-09T20:57:18.951Z,7.93
2019-03-09T20:59:47.733Z,6.20
2019-03-09T21:02:16.535Z,6.83
2019-03-09T21:04:45.334Z,7.03
2019-03-09T21:07:14.114Z,3.93
2019-03-09T21:09:42.904Z,5.37
2019-03-09T21:12:11.769Z,4.40
2019-03-09T21:14:40.874Z,4.30
2019-03-09T21:17:09.668Z,4.43
2019-03-09T21:19:38.433Z,4.80
2019-03-09T21:22:07.578Z,3.00
2019-03-09T21:24:36.370Z,3.77
2019-03-09T21:27:05.161Z,3.80
2019-03-09T21:29:33.930Z,3.33
2019-03-09T21:32:02.759Z,2.33
2019-03-09T21:34:31.578Z,3.23
2019-03-09T21:37:00.610Z,6.00
2019-03-09T21:39:29.368Z,3.87
2019-03-09T21:41:58.242Z,6.03
2019-03-09T21:44:26.997Z,3.07
2019-03-09T21:46:55.870Z,4.00
2019-03-09T21:49:24.912Z,3.73
2019-03-09T21:51:53.702Z,3.27
2019-03-09T21:54:22.474Z,5.43
2019-03-09T21:56:51.330Z,4.00
2019-03-09T21:59:20.461Z,2.60
2019-03-09T22:01:49.553Z,4.33
2019-03-09T22:04:18.314Z,3.23
2019-03-09T22:06:47.098Z,2.20
2019-03-09T22:09:15.881Z,2.80
2019-03-09T22:11:44.731Z,3.30
2019-03-09T22:14:13.501Z,2.87
2019-03-09T22:16:42.350Z,2.97
2019-03-09T22:19:11.125Z,3.60
2019-03-09T22:21:39.914Z,3.80
2019-03-09T22:24:08.710Z,3.53
2019-03-09T22:26:37.497Z,2.83
2019-03-09T22:29:06.376Z,3.07
2019-03-09T22:31:35.168Z,3.70
2019-03-09T22:34:04.038Z,6.83
2019-03-09T22:36:32.883Z,4.90
2019-03-09T22:39:01.681Z,3.40
2019-03-09T22:41:30.495Z,4.27
2019-03-09T22:43:59.285Z,4.80
2019-03-09T22:46:28.136Z,7.53
2019-03-09T22:48:56.913Z,4.73
2019-03-09T22:51:25.690Z,6.43
2019-03-09T22:53:54.576Z,6.40
2019-03-09T22:56:23.355Z,6.63
2019-03-09T22:58:52.133Z,4.33
2019-03-09T23:01:21.164Z,5.80
2019-03-09T23:03:52.884Z,4.60
2019-03-09T23:06:21.910Z,6.67
2019-03-09T23:08:50.691Z,7.07
2019-03-09T23:11:19.462Z,10.87
2019-03-09T23:13:48.375Z,8.47
2019-03-09T23:16:17.137Z,8.00
2019-03-09T23:18:46.186Z,6.07
2019-03-09T23:21:15.022Z,5.53
2019-03-09T23:23:44.063Z,7.53
2019-03-09T23:26:13.113Z,8.33
2019-03-09T23:28:46.610Z,7.90
2019-03-09T23:31:15.521Z,7.63
2019-03-09T23:33:44.313Z,9.00
2019-03-09T23:36:13.309Z,10.10
2019-03-09T23:38:42.173Z,7.50
2019-03-09T23:41:11.504Z,7.30
2019-03-09T23:43:40.281Z,8.83
2019-03-09T23:46:09.382Z,12.27
2019-03-09T23:48:38.335Z,10.13
2019-03-09T23:51:07.271Z,8.73
2019-03-09T23:53:36.193Z,8.90
2019-03-09T23:56:05.065Z,7.27
2019-03-09T23:58:34.034Z,8.20
